Cincinnati, Ohio
Traffic Map
Current Weather Conditions
Cincinnati, Ohio
Overcast Haze
Overcast
20°
Feels Like: 20°
Wind Chill: 20° Ceiling: 7000
Heat Index: 20° Visibility: 6mi
Dew Point: 19° Wind: 0mph
Humidity: 93% Direction: ° ()
Pressure: 29.91in Gusts: 0mph
Raw Report DataKLUK 030553Z AUTO 00000KT 6SM BR BKN070 OVC085 20/19 A2991 RMK AO2 SLP124 60002 T02000189 10217 20200 55002
Traffic Incident Summary
Active as of:
Severity:
Category:
InformationThere was an issue retrieving the traffic information for this location. Please try a different location or try again shortly.
Advertisements
Track Severe Weather on mobile